createdAt,value
2022-08-25T09:45:48.655Z,25.91
2022-08-25T09:48:55.991Z,25.86
2022-08-25T09:51:29.277Z,25.89
2022-08-25T09:54:13.987Z,25.98
2022-08-25T09:56:59.507Z,26.00
2022-08-25T09:59:36.711Z,26.08
2022-08-25T10:02:23.699Z,26.27
2022-08-25T10:04:50.870Z,26.41
2022-08-25T10:07:26.778Z,26.39
2022-08-25T10:09:57.129Z,26.54
2022-08-25T10:12:37.900Z,26.55
2022-08-25T10:15:32.586Z,26.85
2022-08-25T10:18:29.548Z,26.83
2022-08-25T10:21:12.179Z,27.04
2022-08-25T10:23:48.676Z,27.24
2022-08-25T10:26:40.026Z,27.30
2022-08-25T10:29:17.698Z,27.12
2022-08-25T10:31:59.626Z,27.07
2022-08-25T10:34:45.538Z,27.28
2022-08-25T10:37:46.910Z,27.42
2022-08-25T10:40:38.332Z,27.43
2022-08-25T10:43:23.948Z,27.55
2022-08-25T10:46:01.241Z,27.53
2022-08-25T10:48:30.811Z,27.68
2022-08-25T10:51:28.693Z,27.88
2022-08-25T10:54:49.724Z,27.81
2022-08-25T10:57:25.238Z,27.66
2022-08-25T11:00:14.215Z,28.11
2022-08-25T11:02:49.937Z,28.36
2022-08-25T11:05:48.004Z,28.48
2022-08-25T11:08:34.287Z,28.43
2022-08-25T11:11:29.198Z,28.42
2022-08-25T11:14:06.469Z,28.26
2022-08-25T11:17:10.051Z,28.42
2022-08-25T11:19:40.096Z,28.49
2022-08-25T11:22:34.380Z,28.68
2022-08-25T11:25:42.961Z,28.65
2022-08-25T11:28:32.178Z,28.64
2022-08-25T11:31:01.896Z,28.81
2022-08-25T11:33:34.370Z,28.98
2022-08-25T11:36:22.498Z,28.94
2022-08-25T11:42:12.615Z,28.97
2022-08-25T11:45:02.584Z,28.92
2022-08-25T11:47:42.350Z,28.84
2022-08-25T11:50:30.058Z,29.19
2022-08-25T11:53:12.231Z,29.13
2022-08-25T11:55:56.314Z,28.86
2022-08-25T11:58:37.181Z,29.04
2022-08-25T12:01:09.406Z,29.25
2022-08-25T12:03:36.814Z,29.50
2022-08-25T12:06:26.206Z,29.60
2022-08-25T12:09:25.371Z,29.61
2022-08-25T12:12:35.686Z,29.64
2022-08-25T12:15:32.507Z,29.47
2022-08-25T12:18:45.601Z,29.88
2022-08-25T12:21:29.950Z,30.22
2022-08-25T12:24:15.805Z,30.39
2022-08-25T12:26:42.540Z,30.20
2022-08-25T12:29:26.875Z,29.98
2022-08-25T12:32:04.743Z,29.77
2022-08-25T12:35:24.676Z,29.82
2022-08-25T12:38:03.218Z,30.03
2022-08-25T12:40:42.966Z,30.05
2022-08-25T12:43:25.530Z,29.85
2022-08-25T12:46:14.930Z,30.15
2022-08-25T12:48:56.086Z,30.34
2022-08-25T12:51:25.849Z,30.64
2022-08-25T12:54:22.460Z,30.60
2022-08-25T12:57:12.787Z,30.51
2022-08-25T12:59:48.776Z,31.17
2022-08-25T13:02:24.851Z,30.84
2022-08-25T13:05:33.585Z,31.70
2022-08-25T13:08:16.173Z,31.77
2022-08-25T13:10:54.718Z,31.81
2022-08-25T13:13:46.428Z,31.72
2022-08-25T13:16:29.590Z,32.16
2022-08-25T13:18:59.704Z,32.61
2022-08-25T13:21:39.028Z,32.81
2022-08-25T13:28:28.885Z,32.37
2022-08-25T13:31:42.110Z,32.73
2022-08-25T13:34:19.488Z,33.12
2022-08-25T13:37:08.172Z,32.49
2022-08-25T13:39:55.368Z,32.61
2022-08-25T13:42:23.992Z,32.54
2022-08-25T13:44:55.859Z,32.55
2022-08-25T13:47:43.315Z,32.80
2022-08-25T13:50:22.607Z,33.17
2022-08-25T13:53:26.272Z,32.53
2022-08-25T14:11:37.656Z,33.09
2022-08-25T14:14:32.394Z,33.45
2022-08-25T14:17:28.295Z,33.35
2022-08-25T14:19:57.474Z,33.64
2022-08-25T14:22:24.281Z,33.88
2022-08-25T14:24:53.785Z,33.49
2022-08-25T14:28:16.479Z,32.86
2022-08-25T14:30:51.891Z,33.10
2022-08-25T14:33:21.545Z,33.86
2022-08-25T14:35:51.647Z,34.12
2022-08-25T14:38:21.397Z,34.41
2022-08-25T14:40:50.170Z,33.96
2022-08-25T14:43:17.748Z,34.42
2022-08-25T14:45:49.035Z,34.12
2022-08-25T14:48:29.656Z,34.34
2022-08-25T14:50:58.897Z,34.57
2022-08-25T14:53:27.556Z,35.12
2022-08-25T14:55:59.094Z,35.24
2022-08-25T14:58:27.214Z,35.03
2022-08-25T15:00:55.505Z,35.62
2022-08-25T15:03:32.343Z,35.59
2022-08-25T15:06:01.347Z,35.87
2022-08-25T15:08:48.030Z,35.76
2022-08-25T15:11:15.504Z,36.04
2022-08-25T15:13:55.374Z,36.70
2022-08-25T15:16:33.843Z,36.19
2022-08-25T15:19:06.617Z,36.30
2022-08-25T15:21:34.450Z,36.46
2022-08-25T15:24:02.729Z,37.03
2022-08-25T15:26:29.367Z,37.05
2022-08-25T15:28:56.054Z,36.19
2022-08-25T15:31:23.646Z,36.33
2022-08-25T15:33:51.427Z,36.23
2022-08-25T15:36:24.669Z,36.72
2022-08-25T15:38:51.991Z,36.69
2022-08-25T15:41:19.478Z,37.27
2022-08-25T15:43:46.253Z,37.57
2022-08-25T15:46:19.691Z,37.66
2022-08-25T15:48:47.458Z,37.74
2022-08-25T15:51:16.246Z,37.77
2022-08-25T15:53:43.620Z,37.77
2022-08-25T15:56:14.176Z,37.87
2022-08-25T15:58:49.801Z,37.79
2022-08-25T16:01:19.721Z,37.76
2022-08-25T16:03:46.608Z,37.10
2022-08-25T16:06:13.665Z,36.42
2022-08-25T16:08:40.349Z,36.26
2022-08-25T16:11:26.660Z,36.21
2022-08-25T16:13:54.850Z,36.13
2022-08-25T16:16:27.004Z,35.87
2022-08-25T16:18:54.384Z,35.32
2022-08-25T16:21:30.031Z,34.71
2022-08-25T16:24:00.727Z,33.80
2022-08-25T16:26:30.127Z,33.00
2022-08-25T16:28:57.825Z,33.31
2022-08-25T16:31:31.065Z,32.26
2022-08-25T16:34:01.917Z,31.71
2022-08-25T16:36:29.635Z,31.22
2022-08-25T16:38:57.777Z,29.74
2022-08-25T16:41:34.319Z,29.01
2022-08-25T16:44:04.339Z,28.65
2022-08-25T16:46:41.457Z,28.22
2022-08-25T16:49:09.580Z,27.91
2022-08-25T16:51:38.548Z,27.64
2022-08-25T16:54:25.206Z,27.45
2022-08-25T16:56:55.090Z,27.12
2022-08-25T16:59:23.348Z,27.07
2022-08-25T17:01:58.398Z,26.84
2022-08-25T17:04:29.589Z,26.70
2022-08-25T17:07:00.528Z,26.62
2022-08-25T17:09:29.735Z,26.36
2022-08-25T17:12:02.256Z,26.21
2022-08-25T17:14:29.009Z,25.99
2022-08-25T17:16:55.818Z,25.95
2022-08-25T17:19:26.370Z,25.84
2022-08-25T17:21:54.901Z,25.70
2022-08-25T17:24:22.381Z,25.46
2022-08-25T17:26:56.573Z,25.57
2022-08-25T17:29:26.607Z,25.52
2022-08-25T17:31:57.147Z,25.61
2022-08-25T17:34:24.940Z,25.41
2022-08-25T17:36:56.633Z,25.26
2022-08-25T17:39:24.392Z,25.17
2022-08-25T17:41:52.480Z,25.05
2022-08-25T17:44:19.955Z,24.98
2022-08-25T17:46:48.247Z,25.09
2022-08-25T17:49:17.203Z,24.95
2022-08-25T17:51:44.038Z,24.87
2022-08-25T17:54:12.631Z,24.86
2022-08-25T17:56:39.915Z,24.55
2022-08-25T17:59:07.040Z,24.46
2022-08-25T18:01:40.537Z,24.42
2022-08-25T18:04:17.514Z,24.34
2022-08-25T18:06:45.852Z,24.42
2022-08-25T18:09:13.170Z,24.31
2022-08-25T18:11:39.816Z,24.06
2022-08-25T18:14:11.511Z,24.09
2022-08-25T18:16:38.969Z,24.13
2022-08-25T18:19:06.605Z,23.94
2022-08-25T18:21:36.937Z,24.00
2022-08-25T18:24:04.638Z,23.92
2022-08-25T18:26:34.180Z,23.95
2022-08-25T18:29:01.279Z,23.84
2022-08-25T18:31:28.573Z,23.84
2022-08-25T18:34:02.532Z,23.85
2022-08-25T18:36:39.763Z,23.75
2022-08-25T18:39:32.867Z,23.46
2022-08-25T18:42:03.621Z,23.40
2022-08-25T18:44:31.545Z,23.38
2022-08-25T18:46:59.675Z,23.32
2022-08-25T18:49:34.452Z,23.22
2022-08-25T18:52:01.164Z,23.08
2022-08-25T18:54:40.180Z,23.11
2022-08-25T18:57:08.172Z,23.06
2022-08-25T18:59:39.643Z,23.01
2022-08-25T19:02:12.737Z,22.90
2022-08-25T19:04:42.898Z,22.51
2022-08-25T19:07:12.254Z,22.54
2022-08-25T19:09:39.586Z,22.39
2022-08-25T19:14:38.659Z,22.38
2022-08-25T19:17:08.237Z,22.54
2022-08-25T19:19:35.046Z,22.34
2022-08-25T19:22:02.411Z,22.36
2022-08-25T19:24:31.592Z,22.15
2022-08-25T19:27:02.303Z,22.01
2022-08-25T19:29:30.437Z,21.72
2022-08-25T19:34:51.604Z,21.47
2022-08-25T19:37:18.539Z,21.56
2022-08-25T19:39:52.904Z,21.30
2022-08-25T19:42:35.098Z,21.13
2022-08-25T19:45:07.819Z,21.29
2022-08-25T19:48:00.554Z,21.16
2022-08-25T19:53:16.928Z,21.14
2022-08-25T19:55:43.595Z,21.28
2022-08-25T19:58:11.558Z,21.12
2022-08-25T20:00:40.449Z,21.36
2022-08-25T20:03:08.977Z,21.35
2022-08-25T20:05:38.504Z,21.16
2022-08-25T20:08:06.147Z,21.14
2022-08-25T20:10:39.451Z,21.22
2022-08-25T20:13:14.286Z,21.14
2022-08-25T20:15:42.199Z,21.14
2022-08-25T20:18:09.473Z,20.93
2022-08-25T20:20:36.561Z,20.91
2022-08-25T20:23:30.442Z,20.72
2022-08-25T20:25:57.154Z,20.44
2022-08-25T20:28:24.704Z,20.30
2022-08-25T20:30:51.411Z,20.10
2022-08-25T20:33:22.542Z,20.04
2022-08-25T20:35:49.902Z,20.04
2022-08-25T20:38:20.042Z,19.99
2022-08-25T20:40:47.204Z,19.90
2022-08-25T20:43:15.474Z,19.58
2022-08-25T20:45:43.112Z,19.46
2022-08-25T20:48:12.413Z,19.64
2022-08-25T20:50:39.954Z,19.62
2022-08-25T20:53:10.178Z,19.44
2022-08-25T20:55:44.348Z,19.27
2022-08-25T20:58:12.770Z,19.16
2022-08-25T21:00:45.943Z,18.91
2022-08-25T21:03:12.925Z,18.97
2022-08-25T21:05:41.072Z,19.14
2022-08-25T21:08:08.712Z,18.95
2022-08-25T21:10:35.937Z,18.96
2022-08-25T21:13:02.633Z,18.82
2022-08-25T21:15:30.050Z,18.99
2022-08-25T21:17:57.828Z,18.86
2022-08-25T21:20:25.607Z,18.82
2022-08-25T21:22:53.288Z,18.75
2022-08-25T21:25:20.595Z,18.70
2022-08-25T21:27:48.070Z,18.62
2022-08-25T21:30:16.592Z,18.93
2022-08-25T21:32:52.970Z,18.77
2022-08-25T21:35:20.445Z,18.54
2022-08-25T21:37:53.239Z,18.60
2022-08-25T21:40:21.895Z,18.44
2022-08-25T21:42:49.122Z,18.26
2022-08-25T21:45:16.659Z,18.20
2022-08-25T21:47:47.907Z,18.22
2022-08-25T21:50:14.756Z,18.39
2022-08-25T21:52:42.238Z,18.42
2022-08-25T21:55:13.610Z,18.32
2022-08-25T21:57:43.802Z,18.09
2022-08-25T22:00:13.198Z,18.01
2022-08-25T22:02:40.052Z,17.96
2022-08-25T22:05:11.630Z,18.13
2022-08-25T22:07:41.726Z,18.19
2022-08-25T22:10:12.777Z,18.07
2022-08-25T22:12:44.969Z,18.00
2022-08-25T22:15:13.625Z,18.02
2022-08-25T22:17:40.720Z,17.85
2022-08-25T22:20:08.536Z,17.80
2022-08-25T22:22:36.185Z,17.80
2022-08-25T22:25:03.928Z,17.54
2022-08-25T22:27:32.984Z,17.40
2022-08-25T22:30:00.808Z,17.52
2022-08-25T22:32:27.619Z,17.69
2022-08-25T22:34:54.283Z,17.55
2022-08-25T22:37:20.943Z,17.64
2022-08-25T22:39:50.895Z,17.34
2022-08-25T22:42:20.152Z,17.41
2022-08-25T22:44:53.971Z,17.42
2022-08-25T22:47:20.912Z,17.35
2022-08-25T22:49:47.637Z,17.18
2022-08-25T22:52:15.141Z,17.11
2022-08-25T22:54:41.990Z,17.17
2022-08-25T22:57:09.784Z,17.20
2022-08-25T22:59:37.092Z,17.17
2022-08-25T23:02:05.505Z,17.25
2022-08-25T23:04:33.590Z,17.12
2022-08-25T23:07:00.309Z,16.90
2022-08-25T23:09:26.964Z,17.08
2022-08-25T23:11:54.012Z,16.87
2022-08-25T23:14:20.866Z,16.80
2022-08-25T23:16:48.626Z,16.74
2022-08-25T23:19:16.720Z,16.85
2022-08-25T23:22:03.270Z,16.65
2022-08-25T23:24:31.707Z,16.72
2022-08-25T23:27:00.598Z,16.70
2022-08-25T23:29:28.425Z,16.57
2022-08-25T23:31:56.768Z,16.62
2022-08-25T23:34:24.224Z,16.54
2022-08-25T23:36:51.497Z,16.59
2022-08-25T23:39:18.782Z,16.59
2022-08-25T23:41:48.885Z,16.66
2022-08-25T23:44:17.531Z,16.58
2022-08-25T23:46:47.134Z,16.56
2022-08-25T23:49:20.096Z,16.53
2022-08-25T23:51:52.893Z,16.38
2022-08-25T23:54:21.197Z,16.28
2022-08-25T23:56:52.359Z,16.09
2022-08-25T23:59:24.629Z,15.88
